sensor_id;sensor_type;location;lat;lon;timestamp;P1;durP1;ratioP1;P2;durP2;ratioP2
71172;SDS011;58875;51.996;4.504;2022-12-18T00:02:15;51.96;;;42.40;;
71172;SDS011;58875;51.996;4.504;2022-12-18T00:04:40;54.84;;;43.68;;
71172;SDS011;58875;51.996;4.504;2022-12-18T00:07:06;52.85;;;43.00;;
71172;SDS011;58875;51.996;4.504;2022-12-18T00:09:31;49.86;;;41.54;;
71172;SDS011;58875;51.996;4.504;2022-12-18T00:11:57;49.83;;;41.42;;
71172;SDS011;58875;51.996;4.504;2022-12-18T00:14:22;49.04;;;41.24;;
71172;SDS011;58875;51.996;4.504;2022-12-18T00:16:48;51.63;;;42.63;;
71172;SDS011;58875;51.996;4.504;2022-12-18T00:19:14;50.72;;;42.32;;
71172;SDS011;58875;51.996;4.504;2022-12-18T00:21:40;48.32;;;41.06;;
71172;SDS011;58875;51.996;4.504;2022-12-18T00:24:07;50.00;;;41.80;;
71172;SDS011;58875;51.996;4.504;2022-12-18T00:26:34;50.47;;;42.06;;
71172;SDS011;58875;51.996;4.504;2022-12-18T00:29:10;49.00;;;41.49;;
71172;SDS011;58875;51.996;4.504;2022-12-18T00:31:39;50.85;;;42.26;;
71172;SDS011;58875;51.996;4.504;2022-12-18T00:34:06;51.62;;;42.80;;
71172;SDS011;58875;51.996;4.504;2022-12-18T00:36:32;51.54;;;42.36;;
71172;SDS011;58875;51.996;4.504;2022-12-18T00:39:00;53.21;;;43.48;;
71172;SDS011;58875;51.996;4.504;2022-12-18T00:41:27;49.39;;;41.48;;
71172;SDS011;58875;51.996;4.504;2022-12-18T00:44:12;47.31;;;40.25;;
71172;SDS011;58875;51.996;4.504;2022-12-18T00:46:40;52.31;;;42.85;;
71172;SDS011;58875;51.996;4.504;2022-12-18T00:49:06;53.84;;;43.57;;
71172;SDS011;58875;51.996;4.504;2022-12-18T00:51:32;54.72;;;44.17;;
71172;SDS011;58875;51.996;4.504;2022-12-18T00:53:58;54.05;;;44.04;;
71172;SDS011;58875;51.996;4.504;2022-12-18T00:56:23;54.62;;;44.39;;
71172;SDS011;58875;51.996;4.504;2022-12-18T00:58:49;54.50;;;44.27;;
71172;SDS011;58875;51.996;4.504;2022-12-18T01:01:15;55.98;;;45.03;;
71172;SDS011;58875;51.996;4.504;2022-12-18T01:03:41;54.48;;;43.93;;
71172;SDS011;58875;51.996;4.504;2022-12-18T01:06:08;53.45;;;43.52;;
71172;SDS011;58875;51.996;4.504;2022-12-18T01:08:37;54.06;;;43.97;;
71172;SDS011;58875;51.996;4.504;2022-12-18T01:11:10;53.75;;;43.64;;
71172;SDS011;58875;51.996;4.504;2022-12-18T01:13:38;57.02;;;45.05;;
71172;SDS011;58875;51.996;4.504;2022-12-18T01:16:05;56.43;;;45.18;;
71172;SDS011;58875;51.996;4.504;2022-12-18T01:18:31;55.94;;;44.49;;
71172;SDS011;58875;51.996;4.504;2022-12-18T01:20:57;52.76;;;42.97;;
71172;SDS011;58875;51.996;4.504;2022-12-18T01:23:22;53.22;;;43.16;;
71172;SDS011;58875;51.996;4.504;2022-12-18T01:25:48;51.10;;;42.24;;
71172;SDS011;58875;51.996;4.504;2022-12-18T01:28:13;56.19;;;44.93;;
71172;SDS011;58875;51.996;4.504;2022-12-18T01:30:39;57.85;;;45.97;;
71172;SDS011;58875;51.996;4.504;2022-12-18T01:33:04;55.73;;;44.11;;
71172;SDS011;58875;51.996;4.504;2022-12-18T01:35:30;52.09;;;42.39;;
71172;SDS011;58875;51.996;4.504;2022-12-18T01:37:56;51.42;;;41.94;;
71172;SDS011;58875;51.996;4.504;2022-12-18T01:40:21;50.14;;;41.48;;
71172;SDS011;58875;51.996;4.504;2022-12-18T01:42:51;51.11;;;41.73;;
71172;SDS011;58875;51.996;4.504;2022-12-18T01:47:53;53.35;;;43.26;;
71172;SDS011;58875;51.996;4.504;2022-12-18T01:50:32;54.57;;;43.41;;
71172;SDS011;58875;51.996;4.504;2022-12-18T01:53:05;51.44;;;42.17;;
71172;SDS011;58875;51.996;4.504;2022-12-18T01:55:37;51.35;;;42.16;;
71172;SDS011;58875;51.996;4.504;2022-12-18T01:58:11;49.56;;;41.19;;
71172;SDS011;58875;51.996;4.504;2022-12-18T02:00:37;55.15;;;44.00;;
71172;SDS011;58875;51.996;4.504;2022-12-18T02:03:03;52.90;;;43.12;;
71172;SDS011;58875;51.996;4.504;2022-12-18T02:08:22;48.73;;;41.05;;
71172;SDS011;58875;51.996;4.504;2022-12-18T02:17:13;56.06;;;44.98;;
71172;SDS011;58875;51.996;4.504;2022-12-18T02:25:00;53.74;;;44.15;;
71172;SDS011;58875;51.996;4.504;2022-12-18T02:27:32;51.60;;;42.99;;
71172;SDS011;58875;51.996;4.504;2022-12-18T02:30:02;54.74;;;44.69;;
71172;SDS011;58875;51.996;4.504;2022-12-18T02:32:31;57.72;;;45.79;;
71172;SDS011;58875;51.996;4.504;2022-12-18T02:35:03;57.92;;;45.74;;
71172;SDS011;58875;51.996;4.504;2022-12-18T02:37:34;53.39;;;43.63;;
71172;SDS011;58875;51.996;4.504;2022-12-18T02:40:04;52.47;;;42.81;;
71172;SDS011;58875;51.996;4.504;2022-12-18T02:42:31;50.12;;;41.28;;
71172;SDS011;58875;51.996;4.504;2022-12-18T02:44:57;51.50;;;42.04;;
71172;SDS011;58875;51.996;4.504;2022-12-18T02:47:24;50.86;;;41.50;;
71172;SDS011;58875;51.996;4.504;2022-12-18T02:58:20;48.32;;;39.09;;
71172;SDS011;58875;51.996;4.504;2022-12-18T03:01:10;45.51;;;38.09;;
71172;SDS011;58875;51.996;4.504;2022-12-18T03:03:56;43.25;;;36.67;;
71172;SDS011;58875;51.996;4.504;2022-12-18T03:06:28;46.32;;;38.00;;
71172;SDS011;58875;51.996;4.504;2022-12-18T03:09:10;43.22;;;36.60;;
71172;SDS011;58875;51.996;4.504;2022-12-18T03:12:04;44.00;;;36.92;;
71172;SDS011;58875;51.996;4.504;2022-12-18T03:15:10;43.19;;;36.66;;
71172;SDS011;58875;51.996;4.504;2022-12-18T03:17:59;47.10;;;38.57;;
71172;SDS011;58875;51.996;4.504;2022-12-18T03:20:38;45.73;;;37.81;;
71172;SDS011;58875;51.996;4.504;2022-12-18T03:23:09;48.88;;;39.32;;
71172;SDS011;58875;51.996;4.504;2022-12-18T03:25:40;45.42;;;37.46;;
71172;SDS011;58875;51.996;4.504;2022-12-18T03:28:12;42.92;;;35.70;;
71172;SDS011;58875;51.996;4.504;2022-12-18T03:30:41;41.88;;;35.41;;
71172;SDS011;58875;51.996;4.504;2022-12-18T03:33:16;44.47;;;36.72;;
71172;SDS011;58875;51.996;4.504;2022-12-18T03:35:49;45.68;;;37.52;;
71172;SDS011;58875;51.996;4.504;2022-12-18T03:38:15;45.34;;;37.27;;
71172;SDS011;58875;51.996;4.504;2022-12-18T03:41:01;47.13;;;38.55;;
71172;SDS011;58875;51.996;4.504;2022-12-18T03:48:48;47.09;;;38.17;;
71172;SDS011;58875;51.996;4.504;2022-12-18T03:51:26;48.35;;;39.00;;
71172;SDS011;58875;51.996;4.504;2022-12-18T03:54:00;49.47;;;39.68;;
71172;SDS011;58875;51.996;4.504;2022-12-18T03:56:31;48.74;;;39.58;;
71172;SDS011;58875;51.996;4.504;2022-12-18T03:59:03;47.76;;;38.82;;
71172;SDS011;58875;51.996;4.504;2022-12-18T04:01:34;49.84;;;39.95;;
71172;SDS011;58875;51.996;4.504;2022-12-18T04:04:05;49.95;;;40.37;;
71172;SDS011;58875;51.996;4.504;2022-12-18T04:06:35;46.49;;;38.08;;
71172;SDS011;58875;51.996;4.504;2022-12-18T04:09:02;46.70;;;38.37;;
71172;SDS011;58875;51.996;4.504;2022-12-18T04:11:29;46.19;;;37.78;;
71172;SDS011;58875;51.996;4.504;2022-12-18T04:13:56;45.96;;;37.76;;
71172;SDS011;58875;51.996;4.504;2022-12-18T04:16:23;48.02;;;38.94;;
71172;SDS011;58875;51.996;4.504;2022-12-18T04:18:50;43.10;;;36.40;;
71172;SDS011;58875;51.996;4.504;2022-12-18T04:21:15;46.64;;;38.55;;
71172;SDS011;58875;51.996;4.504;2022-12-18T04:23:41;44.98;;;37.07;;
71172;SDS011;58875;51.996;4.504;2022-12-18T04:26:06;47.36;;;38.76;;
71172;SDS011;58875;51.996;4.504;2022-12-18T04:28:32;43.83;;;36.55;;
71172;SDS011;58875;51.996;4.504;2022-12-18T04:30:57;48.87;;;39.66;;
71172;SDS011;58875;51.996;4.504;2022-12-18T04:33:23;46.73;;;38.04;;
71172;SDS011;58875;51.996;4.504;2022-12-18T04:35:48;42.82;;;35.83;;
71172;SDS011;58875;51.996;4.504;2022-12-18T04:38:14;39.85;;;33.91;;
71172;SDS011;58875;51.996;4.504;2022-12-18T04:40:39;40.39;;;34.25;;
71172;SDS011;58875;51.996;4.504;2022-12-18T04:43:05;42.86;;;35.85;;
71172;SDS011;58875;51.996;4.504;2022-12-18T04:45:31;40.82;;;34.65;;
71172;SDS011;58875;51.996;4.504;2022-12-18T04:47:57;40.18;;;34.38;;
71172;SDS011;58875;51.996;4.504;2022-12-18T04:50:23;39.48;;;33.71;;
71172;SDS011;58875;51.996;4.504;2022-12-18T04:52:49;38.35;;;32.99;;
71172;SDS011;58875;51.996;4.504;2022-12-18T04:55:14;36.55;;;31.62;;
71172;SDS011;58875;51.996;4.504;2022-12-18T04:57:40;38.09;;;32.56;;
71172;SDS011;58875;51.996;4.504;2022-12-18T05:00:06;36.29;;;32.15;;
71172;SDS011;58875;51.996;4.504;2022-12-18T05:02:32;37.12;;;32.34;;
71172;SDS011;58875;51.996;4.504;2022-12-18T05:04:57;38.76;;;33.29;;
71172;SDS011;58875;51.996;4.504;2022-12-18T05:07:23;37.50;;;32.50;;
71172;SDS011;58875;51.996;4.504;2022-12-18T05:09:48;36.17;;;31.45;;
71172;SDS011;58875;51.996;4.504;2022-12-18T05:12:14;37.12;;;31.97;;
71172;SDS011;58875;51.996;4.504;2022-12-18T05:14:39;37.56;;;32.55;;
71172;SDS011;58875;51.996;4.504;2022-12-18T05:17:05;37.47;;;32.77;;
71172;SDS011;58875;51.996;4.504;2022-12-18T05:19:30;37.11;;;32.30;;
71172;SDS011;58875;51.996;4.504;2022-12-18T05:21:56;37.46;;;32.67;;
71172;SDS011;58875;51.996;4.504;2022-12-18T05:24:22;37.06;;;32.21;;
71172;SDS011;58875;51.996;4.504;2022-12-18T05:26:48;38.71;;;33.16;;
71172;SDS011;58875;51.996;4.504;2022-12-18T05:29:14;36.15;;;31.81;;
71172;SDS011;58875;51.996;4.504;2022-12-18T05:31:40;37.09;;;32.42;;
71172;SDS011;58875;51.996;4.504;2022-12-18T05:34:05;36.43;;;32.16;;
71172;SDS011;58875;51.996;4.504;2022-12-18T05:36:31;37.96;;;32.82;;
71172;SDS011;58875;51.996;4.504;2022-12-18T05:38:57;38.34;;;32.99;;
71172;SDS011;58875;51.996;4.504;2022-12-18T05:41:22;36.71;;;32.43;;
71172;SDS011;58875;51.996;4.504;2022-12-18T05:43:48;37.09;;;32.39;;
71172;SDS011;58875;51.996;4.504;2022-12-18T05:46:14;41.32;;;35.09;;
71172;SDS011;58875;51.996;4.504;2022-12-18T05:48:42;38.59;;;33.36;;
71172;SDS011;58875;51.996;4.504;2022-12-18T05:51:11;38.66;;;33.24;;
71172;SDS011;58875;51.996;4.504;2022-12-18T05:53:39;37.59;;;32.57;;
71172;SDS011;58875;51.996;4.504;2022-12-18T05:56:07;37.20;;;32.34;;
71172;SDS011;58875;51.996;4.504;2022-12-18T05:58:35;35.49;;;31.21;;
71172;SDS011;58875;51.996;4.504;2022-12-18T06:03:38;39.94;;;33.89;;
71172;SDS011;58875;51.996;4.504;2022-12-18T06:06:03;36.63;;;31.88;;
71172;SDS011;58875;51.996;4.504;2022-12-18T06:08:29;36.28;;;31.55;;
71172;SDS011;58875;51.996;4.504;2022-12-18T06:10:55;35.34;;;31.08;;
71172;SDS011;58875;51.996;4.504;2022-12-18T06:13:20;33.83;;;30.13;;
71172;SDS011;58875;51.996;4.504;2022-12-18T06:15:46;35.60;;;31.62;;
71172;SDS011;58875;51.996;4.504;2022-12-18T06:18:12;34.44;;;30.96;;
71172;SDS011;58875;51.996;4.504;2022-12-18T06:20:38;34.03;;;30.48;;
71172;SDS011;58875;51.996;4.504;2022-12-18T06:23:05;33.18;;;30.10;;
71172;SDS011;58875;51.996;4.504;2022-12-18T06:25:30;35.25;;;30.96;;
71172;SDS011;58875;51.996;4.504;2022-12-18T06:27:56;34.37;;;30.80;;
71172;SDS011;58875;51.996;4.504;2022-12-18T06:30:22;33.14;;;29.76;;
71172;SDS011;58875;51.996;4.504;2022-12-18T06:32:48;32.40;;;29.21;;
71172;SDS011;58875;51.996;4.504;2022-12-18T06:35:14;33.67;;;29.80;;
71172;SDS011;58875;51.996;4.504;2022-12-18T06:37:39;32.92;;;29.55;;
71172;SDS011;58875;51.996;4.504;2022-12-18T06:40:05;33.61;;;29.96;;
71172;SDS011;58875;51.996;4.504;2022-12-18T06:42:31;31.14;;;28.52;;
71172;SDS011;58875;51.996;4.504;2022-12-18T06:44:57;32.47;;;29.14;;
71172;SDS011;58875;51.996;4.504;2022-12-18T06:47:22;29.42;;;27.18;;
71172;SDS011;58875;51.996;4.504;2022-12-18T06:49:48;28.26;;;26.40;;
71172;SDS011;58875;51.996;4.504;2022-12-18T06:52:13;28.93;;;26.64;;
71172;SDS011;58875;51.996;4.504;2022-12-18T06:54:39;29.98;;;27.75;;
71172;SDS011;58875;51.996;4.504;2022-12-18T06:57:05;30.91;;;27.94;;
71172;SDS011;58875;51.996;4.504;2022-12-18T06:59:30;29.98;;;27.50;;
71172;SDS011;58875;51.996;4.504;2022-12-18T07:01:56;30.52;;;28.15;;
71172;SDS011;58875;51.996;4.504;2022-12-18T07:04:21;29.43;;;27.35;;
71172;SDS011;58875;51.996;4.504;2022-12-18T07:06:47;29.01;;;26.92;;
71172;SDS011;58875;51.996;4.504;2022-12-18T07:09:12;29.07;;;26.84;;
71172;SDS011;58875;51.996;4.504;2022-12-18T07:11:38;30.33;;;27.75;;
71172;SDS011;58875;51.996;4.504;2022-12-18T07:14:03;28.97;;;26.67;;
71172;SDS011;58875;51.996;4.504;2022-12-18T07:16:29;28.92;;;26.60;;
71172;SDS011;58875;51.996;4.504;2022-12-18T07:18:54;27.63;;;25.78;;
71172;SDS011;58875;51.996;4.504;2022-12-18T07:23:49;28.85;;;26.57;;
71172;SDS011;58875;51.996;4.504;2022-12-18T07:26:16;26.35;;;25.17;;
71172;SDS011;58875;51.996;4.504;2022-12-18T07:28:43;27.24;;;25.59;;
71172;SDS011;58875;51.996;4.504;2022-12-18T07:31:12;27.22;;;25.16;;
71172;SDS011;58875;51.996;4.504;2022-12-18T07:33:42;28.74;;;26.23;;
71172;SDS011;58875;51.996;4.504;2022-12-18T07:36:11;27.50;;;25.47;;
71172;SDS011;58875;51.996;4.504;2022-12-18T07:38:37;27.90;;;25.34;;
71172;SDS011;58875;51.996;4.504;2022-12-18T07:41:03;26.05;;;24.48;;
71172;SDS011;58875;51.996;4.504;2022-12-18T07:43:31;25.50;;;24.05;;
71172;SDS011;58875;51.996;4.504;2022-12-18T07:45:57;25.27;;;23.98;;
71172;SDS011;58875;51.996;4.504;2022-12-18T07:48:22;25.28;;;23.93;;
71172;SDS011;58875;51.996;4.504;2022-12-18T07:50:48;26.30;;;24.72;;
71172;SDS011;58875;51.996;4.504;2022-12-18T07:53:13;26.67;;;24.98;;
71172;SDS011;58875;51.996;4.504;2022-12-18T07:55:40;26.73;;;24.95;;
71172;SDS011;58875;51.996;4.504;2022-12-18T07:58:06;25.07;;;23.80;;
71172;SDS011;58875;51.996;4.504;2022-12-18T08:00:32;26.07;;;24.16;;
71172;SDS011;58875;51.996;4.504;2022-12-18T08:02:58;26.51;;;24.61;;
71172;SDS011;58875;51.996;4.504;2022-12-18T08:05:23;26.52;;;24.70;;
71172;SDS011;58875;51.996;4.504;2022-12-18T08:07:49;24.85;;;23.57;;
71172;SDS011;58875;51.996;4.504;2022-12-18T08:10:15;25.46;;;23.93;;
71172;SDS011;58875;51.996;4.504;2022-12-18T08:12:41;26.14;;;24.53;;
71172;SDS011;58875;51.996;4.504;2022-12-18T08:15:07;24.65;;;23.38;;
71172;SDS011;58875;51.996;4.504;2022-12-18T08:17:33;24.93;;;23.65;;
71172;SDS011;58875;51.996;4.504;2022-12-18T08:20:00;25.36;;;23.71;;
71172;SDS011;58875;51.996;4.504;2022-12-18T08:22:26;25.42;;;23.95;;
71172;SDS011;58875;51.996;4.504;2022-12-18T08:24:52;24.70;;;23.30;;
71172;SDS011;58875;51.996;4.504;2022-12-18T08:27:17;24.62;;;23.41;;
71172;SDS011;58875;51.996;4.504;2022-12-18T08:29:43;24.79;;;23.23;;
71172;SDS011;58875;51.996;4.504;2022-12-18T08:32:09;26.15;;;24.16;;
71172;SDS011;58875;51.996;4.504;2022-12-18T08:34:35;25.38;;;23.53;;
71172;SDS011;58875;51.996;4.504;2022-12-18T08:37:00;23.59;;;22.34;;
71172;SDS011;58875;51.996;4.504;2022-12-18T08:39:26;23.56;;;22.30;;
71172;SDS011;58875;51.996;4.504;2022-12-18T08:41:51;23.28;;;22.19;;
71172;SDS011;58875;51.996;4.504;2022-12-18T08:44:35;24.30;;;22.81;;
71172;SDS011;58875;51.996;4.504;2022-12-18T08:47:04;24.59;;;23.01;;
71172;SDS011;58875;51.996;4.504;2022-12-18T08:49:31;23.98;;;22.68;;
71172;SDS011;58875;51.996;4.504;2022-12-18T08:51:57;24.15;;;22.80;;
71172;SDS011;58875;51.996;4.504;2022-12-18T08:54:23;24.75;;;23.15;;
71172;SDS011;58875;51.996;4.504;2022-12-18T08:56:49;23.26;;;22.43;;
71172;SDS011;58875;51.996;4.504;2022-12-18T08:59:18;22.68;;;22.03;;
71172;SDS011;58875;51.996;4.504;2022-12-18T09:01:44;22.50;;;21.79;;
71172;SDS011;58875;51.996;4.504;2022-12-18T09:04:11;23.34;;;22.22;;
71172;SDS011;58875;51.996;4.504;2022-12-18T09:06:37;23.26;;;22.42;;
71172;SDS011;58875;51.996;4.504;2022-12-18T09:09:03;22.55;;;21.50;;
71172;SDS011;58875;51.996;4.504;2022-12-18T09:11:30;23.00;;;22.11;;
71172;SDS011;58875;51.996;4.504;2022-12-18T09:13:57;23.78;;;22.97;;
71172;SDS011;58875;51.996;4.504;2022-12-18T09:16:25;22.54;;;22.01;;
71172;SDS011;58875;51.996;4.504;2022-12-18T09:18:54;23.45;;;22.60;;
71172;SDS011;58875;51.996;4.504;2022-12-18T09:21:24;23.49;;;22.55;;
71172;SDS011;58875;51.996;4.504;2022-12-18T09:23:52;22.91;;;21.87;;
71172;SDS011;58875;51.996;4.504;2022-12-18T09:26:20;23.56;;;22.53;;
71172;SDS011;58875;51.996;4.504;2022-12-18T09:28:47;22.86;;;22.13;;
71172;SDS011;58875;51.996;4.504;2022-12-18T09:31:12;22.90;;;22.18;;
71172;SDS011;58875;51.996;4.504;2022-12-18T09:33:39;22.93;;;22.23;;
71172;SDS011;58875;51.996;4.504;2022-12-18T09:36:05;23.03;;;22.18;;
71172;SDS011;58875;51.996;4.504;2022-12-18T09:38:33;23.03;;;22.17;;
71172;SDS011;58875;51.996;4.504;2022-12-18T09:41:04;22.47;;;21.82;;
71172;SDS011;58875;51.996;4.504;2022-12-18T09:43:41;22.67;;;21.93;;
71172;SDS011;58875;51.996;4.504;2022-12-18T09:46:17;23.22;;;22.48;;
71172;SDS011;58875;51.996;4.504;2022-12-18T09:48:50;24.72;;;23.68;;
71172;SDS011;58875;51.996;4.504;2022-12-18T09:51:23;23.57;;;22.98;;
71172;SDS011;58875;51.996;4.504;2022-12-18T09:54:06;24.27;;;23.47;;
71172;SDS011;58875;51.996;4.504;2022-12-18T09:56:57;23.06;;;22.48;;
71172;SDS011;58875;51.996;4.504;2022-12-18T09:59:24;22.91;;;22.56;;
71172;SDS011;58875;51.996;4.504;2022-12-18T10:01:57;24.44;;;23.57;;
71172;SDS011;58875;51.996;4.504;2022-12-18T10:04:23;24.71;;;23.96;;
71172;SDS011;58875;51.996;4.504;2022-12-18T10:07:02;25.98;;;25.69;;
71172;SDS011;58875;51.996;4.504;2022-12-18T10:09:41;26.63;;;26.18;;
71172;SDS011;58875;51.996;4.504;2022-12-18T10:12:25;27.34;;;26.77;;
71172;SDS011;58875;51.996;4.504;2022-12-18T10:18:03;23.93;;;23.24;;
71172;SDS011;58875;51.996;4.504;2022-12-18T10:21:03;23.73;;;22.96;;
71172;SDS011;58875;51.996;4.504;2022-12-18T10:26:39;23.14;;;22.38;;
71172;SDS011;58875;51.996;4.504;2022-12-18T10:29:10;23.36;;;22.56;;
71172;SDS011;58875;51.996;4.504;2022-12-18T10:31:38;23.31;;;22.68;;
71172;SDS011;58875;51.996;4.504;2022-12-18T10:34:09;22.87;;;22.36;;
71172;SDS011;58875;51.996;4.504;2022-12-18T10:36:36;23.41;;;22.62;;
71172;SDS011;58875;51.996;4.504;2022-12-18T10:42:10;22.59;;;22.01;;
71172;SDS011;58875;51.996;4.504;2022-12-18T10:44:41;22.98;;;22.27;;
71172;SDS011;58875;51.996;4.504;2022-12-18T10:47:11;22.71;;;21.95;;
71172;SDS011;58875;51.996;4.504;2022-12-18T10:49:42;23.19;;;22.38;;
71172;SDS011;58875;51.996;4.504;2022-12-18T10:52:20;22.73;;;22.22;;
71172;SDS011;58875;51.996;4.504;2022-12-18T10:54:53;23.28;;;22.78;;
71172;SDS011;58875;51.996;4.504;2022-12-18T10:59:55;23.12;;;22.32;;
71172;SDS011;58875;51.996;4.504;2022-12-18T11:02:25;22.63;;;22.13;;
71172;SDS011;58875;51.996;4.504;2022-12-18T11:05:02;23.28;;;22.72;;
71172;SDS011;58875;51.996;4.504;2022-12-18T11:07:50;23.23;;;22.23;;
71172;SDS011;58875;51.996;4.504;2022-12-18T11:10:17;23.06;;;22.44;;
71172;SDS011;58875;51.996;4.504;2022-12-18T11:12:44;22.58;;;22.15;;
71172;SDS011;58875;51.996;4.504;2022-12-18T11:15:16;23.51;;;23.04;;
71172;SDS011;58875;51.996;4.504;2022-12-18T11:17:49;23.26;;;22.62;;
71172;SDS011;58875;51.996;4.504;2022-12-18T11:23:00;23.75;;;23.16;;
71172;SDS011;58875;51.996;4.504;2022-12-18T11:25:37;22.44;;;21.99;;
71172;SDS011;58875;51.996;4.504;2022-12-18T11:28:04;22.18;;;21.87;;
71172;SDS011;58875;51.996;4.504;2022-12-18T11:34:01;22.65;;;22.02;;
71172;SDS011;58875;51.996;4.504;2022-12-18T11:36:51;23.52;;;22.76;;
71172;SDS011;58875;51.996;4.504;2022-12-18T11:39:19;22.00;;;21.53;;
71172;SDS011;58875;51.996;4.504;2022-12-18T11:42:05;23.35;;;22.84;;
71172;SDS011;58875;51.996;4.504;2022-12-18T11:44:46;22.73;;;22.22;;
71172;SDS011;58875;51.996;4.504;2022-12-18T11:50:12;23.96;;;23.33;;
71172;SDS011;58875;51.996;4.504;2022-12-18T11:52:43;23.49;;;22.76;;
71172;SDS011;58875;51.996;4.504;2022-12-18T11:55:11;23.22;;;22.72;;
71172;SDS011;58875;51.996;4.504;2022-12-18T11:58:03;23.29;;;22.66;;
71172;SDS011;58875;51.996;4.504;2022-12-18T12:00:52;23.16;;;22.90;;
71172;SDS011;58875;51.996;4.504;2022-12-18T12:03:57;22.84;;;22.43;;
71172;SDS011;58875;51.996;4.504;2022-12-18T12:09:24;23.57;;;22.99;;
71172;SDS011;58875;51.996;4.504;2022-12-18T12:17:33;23.86;;;23.24;;
71172;SDS011;58875;51.996;4.504;2022-12-18T12:22:47;23.32;;;22.71;;
71172;SDS011;58875;51.996;4.504;2022-12-18T12:25:33;22.78;;;22.49;;
71172;SDS011;58875;51.996;4.504;2022-12-18T12:28:20;23.66;;;23.14;;
71172;SDS011;58875;51.996;4.504;2022-12-18T12:36:53;23.57;;;23.13;;
71172;SDS011;58875;51.996;4.504;2022-12-18T12:39:30;23.31;;;22.84;;
71172;SDS011;58875;51.996;4.504;2022-12-18T12:42:01;22.78;;;22.35;;
71172;SDS011;58875;51.996;4.504;2022-12-18T12:44:55;23.08;;;22.62;;
71172;SDS011;58875;51.996;4.504;2022-12-18T12:47:25;23.36;;;22.89;;
71172;SDS011;58875;51.996;4.504;2022-12-18T12:49:58;24.02;;;23.56;;
71172;SDS011;58875;51.996;4.504;2022-12-18T12:52:35;23.96;;;23.60;;
71172;SDS011;58875;51.996;4.504;2022-12-18T12:55:06;23.87;;;23.38;;
71172;SDS011;58875;51.996;4.504;2022-12-18T13:00:53;23.47;;;22.88;;
71172;SDS011;58875;51.996;4.504;2022-12-18T13:06:15;22.78;;;22.52;;
71172;SDS011;58875;51.996;4.504;2022-12-18T13:09:05;23.10;;;22.64;;
71172;SDS011;58875;51.996;4.504;2022-12-18T13:14:44;24.69;;;24.33;;
71172;SDS011;58875;51.996;4.504;2022-12-18T13:19:47;24.16;;;23.80;;
71172;SDS011;58875;51.996;4.504;2022-12-18T13:22:38;24.48;;;24.01;;
71172;SDS011;58875;51.996;4.504;2022-12-18T13:25:27;23.91;;;23.38;;
71172;SDS011;58875;51.996;4.504;2022-12-18T13:38:32;24.31;;;23.68;;
71172;SDS011;58875;51.996;4.504;2022-12-18T13:46:23;24.37;;;23.88;;
71172;SDS011;58875;51.996;4.504;2022-12-18T13:51:53;25.19;;;24.37;;
71172;SDS011;58875;51.996;4.504;2022-12-18T13:54:34;24.46;;;23.89;;
71172;SDS011;58875;51.996;4.504;2022-12-18T13:57:02;24.47;;;23.95;;
71172;SDS011;58875;51.996;4.504;2022-12-18T13:59:35;24.70;;;24.01;;
71172;SDS011;58875;51.996;4.504;2022-12-18T14:02:15;24.25;;;23.75;;
71172;SDS011;58875;51.996;4.504;2022-12-18T14:04:47;24.11;;;23.31;;
71172;SDS011;58875;51.996;4.504;2022-12-18T14:07:32;23.28;;;22.79;;
71172;SDS011;58875;51.996;4.504;2022-12-18T14:09:59;23.08;;;22.68;;
71172;SDS011;58875;51.996;4.504;2022-12-18T14:20:50;23.53;;;22.99;;
71172;SDS011;58875;51.996;4.504;2022-12-18T14:23:26;24.48;;;23.84;;
71172;SDS011;58875;51.996;4.504;2022-12-18T14:28:50;24.45;;;24.10;;
71172;SDS011;58875;51.996;4.504;2022-12-18T14:31:20;24.22;;;23.59;;
71172;SDS011;58875;51.996;4.504;2022-12-18T14:33:53;23.58;;;23.10;;
71172;SDS011;58875;51.996;4.504;2022-12-18T14:36:23;24.40;;;23.67;;
71172;SDS011;58875;51.996;4.504;2022-12-18T14:38:53;25.00;;;24.06;;
71172;SDS011;58875;51.996;4.504;2022-12-18T14:41:20;24.58;;;24.10;;
71172;SDS011;58875;51.996;4.504;2022-12-18T14:43:48;23.85;;;23.37;;
71172;SDS011;58875;51.996;4.504;2022-12-18T14:46:34;23.81;;;23.33;;
71172;SDS011;58875;51.996;4.504;2022-12-18T14:49:27;24.78;;;24.17;;
71172;SDS011;58875;51.996;4.504;2022-12-18T14:52:01;24.86;;;24.28;;
71172;SDS011;58875;51.996;4.504;2022-12-18T14:54:30;24.94;;;24.13;;
71172;SDS011;58875;51.996;4.504;2022-12-18T14:59:31;23.85;;;23.49;;
71172;SDS011;58875;51.996;4.504;2022-12-18T15:04:47;24.09;;;23.63;;
71172;SDS011;58875;51.996;4.504;2022-12-18T15:07:26;24.91;;;24.48;;
71172;SDS011;58875;51.996;4.504;2022-12-18T15:12:41;24.94;;;24.47;;
71172;SDS011;58875;51.996;4.504;2022-12-18T15:15:43;24.01;;;23.56;;
71172;SDS011;58875;51.996;4.504;2022-12-18T15:23:04;24.69;;;24.18;;
71172;SDS011;58875;51.996;4.504;2022-12-18T15:25:34;24.41;;;24.04;;
71172;SDS011;58875;51.996;4.504;2022-12-18T15:28:03;24.21;;;23.85;;
71172;SDS011;58875;51.996;4.504;2022-12-18T15:30:40;25.15;;;24.96;;
71172;SDS011;58875;51.996;4.504;2022-12-18T15:33:38;24.94;;;24.41;;
71172;SDS011;58875;51.996;4.504;2022-12-18T15:36:11;25.07;;;24.32;;
71172;SDS011;58875;51.996;4.504;2022-12-18T15:38:39;25.15;;;24.54;;
71172;SDS011;58875;51.996;4.504;2022-12-18T15:41:05;23.85;;;23.50;;
71172;SDS011;58875;51.996;4.504;2022-12-18T15:43:37;24.49;;;24.08;;
71172;SDS011;58875;51.996;4.504;2022-12-18T15:46:16;24.57;;;23.93;;
71172;SDS011;58875;51.996;4.504;2022-12-18T15:48:47;24.60;;;24.01;;
71172;SDS011;58875;51.996;4.504;2022-12-18T15:51:18;25.77;;;25.00;;
71172;SDS011;58875;51.996;4.504;2022-12-18T15:53:54;24.97;;;24.53;;
71172;SDS011;58875;51.996;4.504;2022-12-18T15:56:22;25.19;;;24.61;;
71172;SDS011;58875;51.996;4.504;2022-12-18T15:59:08;25.15;;;24.67;;
71172;SDS011;58875;51.996;4.504;2022-12-18T16:01:37;24.95;;;24.56;;
71172;SDS011;58875;51.996;4.504;2022-12-18T16:04:02;25.86;;;25.08;;
71172;SDS011;58875;51.996;4.504;2022-12-18T16:06:28;24.68;;;24.22;;
71172;SDS011;58875;51.996;4.504;2022-12-18T16:08:53;24.64;;;23.96;;
71172;SDS011;58875;51.996;4.504;2022-12-18T16:11:23;24.29;;;23.49;;
71172;SDS011;58875;51.996;4.504;2022-12-18T16:14:05;23.53;;;23.03;;
71172;SDS011;58875;51.996;4.504;2022-12-18T16:16:45;23.09;;;22.59;;
71172;SDS011;58875;51.996;4.504;2022-12-18T16:19:13;23.14;;;22.59;;
71172;SDS011;58875;51.996;4.504;2022-12-18T16:21:39;22.55;;;22.18;;
71172;SDS011;58875;51.996;4.504;2022-12-18T16:24:05;23.68;;;23.03;;
71172;SDS011;58875;51.996;4.504;2022-12-18T16:26:37;23.70;;;23.23;;
71172;SDS011;58875;51.996;4.504;2022-12-18T16:29:03;23.18;;;22.66;;
71172;SDS011;58875;51.996;4.504;2022-12-18T16:31:28;23.43;;;22.86;;
71172;SDS011;58875;51.996;4.504;2022-12-18T16:34:13;23.53;;;22.76;;
71172;SDS011;58875;51.996;4.504;2022-12-18T16:36:50;23.84;;;23.24;;
71172;SDS011;58875;51.996;4.504;2022-12-18T16:39:16;23.10;;;22.61;;
71172;SDS011;58875;51.996;4.504;2022-12-18T16:41:42;23.73;;;23.20;;
71172;SDS011;58875;51.996;4.504;2022-12-18T16:44:09;23.80;;;23.27;;
71172;SDS011;58875;51.996;4.504;2022-12-18T16:46:35;24.34;;;23.72;;
71172;SDS011;58875;51.996;4.504;2022-12-18T16:49:02;24.04;;;23.52;;